Time;durP1;ratioP1;P1;durP2;ratioP2;P2;SDS_P1;SDS_P2;PMS_P1;PMS_P2;Temp;Humidity;BMP_temperature;BMP_pressure;BME280_temperature;BME280_humidity;BME280_pressure;Samples;Min_cycle;Max_cycle;Signal;HPM_P1;HPM_P2
2023/01/29 00:01:46;;;;;;;30.83;13.77;;;;;;;12.17;61.24;102851.97;5062402;28;20036;-51
2023/01/29 00:04:12;;;;;;;35.55;15.40;;;;;;;12.27;61.26;102846.53;5057234;28;20093;-54
2023/01/29 00:06:38;;;;;;;34.13;15.63;;;;;;;12.36;61.05;102847.41;5055997;28;20036;-52
2023/01/29 00:09:03;;;;;;;35.05;15.27;;;;;;;12.04;61.53;102857.75;5056780;28;20036;-51
2023/01/29 00:11:30;;;;;;;27.60;11.00;;;;;;;12.21;61.31;102854.34;5057935;28;20045;-54
2023/01/29 00:13:56;;;;;;;30.52;14.88;;;;;;;12.23;60.98;102850.50;5058740;28;20056;-50
2023/01/29 00:16:22;;;;;;;34.33;16.20;;;;;;;12.33;60.99;102855.78;5062346;28;20088;-49
2023/01/29 00:18:48;;;;;;;34.97;16.20;;;;;;;12.00;61.77;102844.81;5061519;28;20037;-52
2023/01/29 00:21:17;;;;;;;41.03;15.13;;;;;;;12.02;61.85;102842.84;5058040;28;20038;-52
2023/01/29 00:23:42;;;;;;;36.85;15.38;;;;;;;12.64;61.71;102839.19;5057798;28;20034;-50
2023/01/29 00:26:08;;;;;;;32.72;13.70;;;;;;;12.23;60.11;102833.59;5055914;28;20033;-51
2023/01/29 00:28:36;;;;;;;28.95;13.50;;;;;;;12.99;59.04;102831.97;5055786;28;20021;-51
2023/01/29 00:31:13;;;;;;;32.55;13.52;;;;;;;11.87;61.08;102818.38;5058182;28;20492;-48
2023/01/29 00:33:39;;;;;;;38.33;15.77;;;;;;;11.66;61.85;102827.59;5053828;28;20088;-49
2023/01/29 00:36:09;;;;;;;29.63;13.77;;;;;;;11.91;61.83;102815.22;5058084;28;20041;-51
2023/01/29 00:38:36;;;;;;;32.53;14.18;;;;;;;11.39;63.30;102818.63;5056725;28;20033;-55
2023/01/29 00:46:43;;;;;;;33.63;14.95;;;;;;;10.96;65.36;102799.59;5055589;28;20048;-52
2023/01/29 00:49:09;;;;;;;26.15;10.93;;;;;;;11.05;65.67;102800.53;5057439;28;20035;-48
2023/01/29 00:51:36;;;;;;;33.75;15.30;;;;;;;11.09;65.31;102803.75;5053978;28;20033;-51
2023/01/29 00:54:05;;;;;;;34.22;14.00;;;;;;;11.47;63.85;102805.31;5052138;28;20076;-49
2023/01/29 00:56:32;;;;;;;34.65;15.43;;;;;;;11.19;65.39;102810.72;5056559;28;20029;-51
2023/01/29 00:58:57;;;;;;;32.20;14.52;;;;;;;11.62;63.61;102820.84;5057353;28;20043;-53
2023/01/29 01:04:09;;;;;;;32.47;14.00;;;;;;;11.66;62.74;102818.69;5054870;28;20278;-51
2023/01/29 01:06:39;;;;;;;32.70;14.35;;;;;;;11.28;63.88;102808.97;5055032;28;20021;-50
2023/01/29 01:11:51;;;;;;;33.55;15.00;;;;;;;11.31;64.45;102813.19;5057354;28;20033;-49
2023/01/29 01:14:18;;;;;;;34.15;13.85;;;;;;;11.04;64.17;102815.72;5059219;28;20043;-51
2023/01/29 01:16:45;;;;;;;;;;;;;;;11.37;63.85;102812.56;5058614;28;20056;-54
2023/01/29 01:19:12;;;;;;;35.17;15.90;;;;;;;10.96;64.53;102802.25;5055022;28;19913;-54
2023/01/29 01:21:39;;;;;;;35.72;15.15;;;;;;;11.04;64.61;102796.16;5061613;28;20035;-51
2023/01/29 01:24:05;;;;;;;30.70;14.85;;;;;;;10.69;66.29;102798.59;5059460;28;20057;-51
2023/01/29 01:26:31;;;;;;;35.03;15.13;;;;;;;10.98;64.98;102796.78;5068202;28;20078;-50
2023/01/29 01:28:58;;;;;;;33.63;16.30;;;;;;;10.70;65.50;102802.09;5060661;28;20294;-55
2023/01/29 01:31:24;;;;;;;36.67;15.50;;;;;;;10.46;66.55;102801.66;5057808;28;20076;-51
2023/01/29 01:33:50;;;;;;;32.88;14.38;;;;;;;10.85;65.29;102802.47;5063129;28;20029;-51
2023/01/29 01:36:18;;;;;;;32.00;14.13;;;;;;;11.02;65.59;102798.97;5066158;28;20041;-51
2023/01/29 01:38:44;;;;;;;33.30;15.48;;;;;;;10.87;65.07;102797.81;5062546;28;20071;-52
2023/01/29 01:41:11;;;;;;;36.80;16.47;;;;;;;10.63;65.29;102793.84;5064399;28;20037;-53
2023/01/29 01:43:51;;;;;;;33.55;15.02;;;;;;;11.03;64.76;102800.66;5062486;28;20033;-51
2023/01/29 01:46:17;;;;;;;31.05;14.15;;;;;;;10.88;64.66;102802.19;5056774;28;20037;-49
2023/01/29 01:48:45;;;;;;;32.97;15.13;;;;;;;11.12;64.52;102808.81;5062239;28;20056;-51
2023/01/29 01:51:11;;;;;;;35.05;14.05;;;;;;;11.17;64.17;102814.53;5056233;28;20061;-52
2023/01/29 01:53:40;;;;;;;;;;;;;;;11.24;64.12;102812.13;5063246;28;20056;-48
2023/01/29 01:56:11;;;;;;;33.22;13.55;;;;;;;10.90;64.65;102813.59;5058606;28;19936;-52
2023/01/29 01:58:52;;;;;;;34.13;14.70;;;;;;;11.03;64.74;102810.53;5059272;28;20060;-52
2023/01/29 02:01:25;;;;;;;30.73;13.95;;;;;;;10.32;67.80;102813.63;5060947;28;20060;-50
2023/01/29 02:09:34;;;;;;;36.00;15.38;;;;;;;10.82;65.38;102816.13;5060265;28;20029;-48
2023/01/29 02:12:08;;;;;;;32.70;15.30;;;;;;;11.41;64.26;102819.28;5062618;28;20045;-48
2023/01/29 02:14:39;;;;;;;31.80;14.45;;;;;;;11.84;62.49;102814.16;5056972;28;20064;-50
2023/01/29 02:17:10;;;;;;;36.42;14.85;;;;;;;11.49;62.78;102815.88;5064571;28;20106;-47
2023/01/29 02:19:45;;;;;;;40.22;16.63;;;;;;;10.89;64.55;102801.19;5067271;28;20044;-53
2023/01/29 02:22:54;;;;;;;34.22;15.32;;;;;;;10.92;66.32;102819.63;5061809;28;20033;-52
2023/01/29 02:25:22;;;;;;;34.53;14.30;;;;;;;10.99;66.32;102815.34;5062150;28;20022;-53
2023/01/29 02:27:48;;;;;;;36.10;14.23;;;;;;;10.16;68.13;102808.91;5064757;28;20055;-50
2023/01/29 02:30:29;;;;;;;34.57;15.60;;;;;;;10.60;65.82;102805.69;5056483;28;20057;-53
2023/01/29 02:33:27;;;;;;;38.38;16.73;;;;;;;10.63;66.50;102801.88;5057182;28;20061;-50
2023/01/29 02:35:57;;;;;;;36.08;15.63;;;;;;;11.14;65.39;102804.97;5056446;28;20068;-48
2023/01/29 02:38:38;;;;;;;40.40;17.83;;;;;;;10.61;65.63;102801.19;5057560;28;20034;-47
2023/01/29 02:41:14;;;;;;;37.63;15.95;;;;;;;11.11;67.64;102801.78;5065195;28;20056;-49
2023/01/29 02:43:46;;;;;;;31.60;14.82;;;;;;;10.90;66.04;102800.19;5060502;28;20057;-51
2023/01/29 02:46:36;;;;;;;40.35;16.10;;;;;;;10.79;66.26;102801.25;5056117;28;20073;-52
2023/01/29 02:49:24;;;;;;;48.10;19.10;;;;;;;10.56;66.74;102792.72;5059759;28;20033;-50
2023/01/29 02:52:13;;;;;;;34.67;16.65;;;;;;;10.76;67.18;102791.66;5057430;28;20096;-51
2023/01/29 02:55:01;;;;;;;38.35;16.23;;;;;;;10.58;66.68;102798.78;5061520;28;20030;-51
2023/01/29 02:57:36;;;;;;;41.45;17.42;;;;;;;10.28;68.06;102798.00;5061398;28;20550;-49
2023/01/29 03:00:28;;;;;;;38.13;18.17;;;;;;;11.56;63.82;102816.97;5061613;28;20048;-51
2023/01/29 03:03:16;;;;;;;42.33;17.83;;;;;;;11.30;64.52;102796.28;5064262;28;20071;-50
2023/01/29 03:05:58;;;;;;;36.85;16.30;;;;;;;10.75;65.69;102803.34;5054839;28;20040;-48
2023/01/29 03:08:41;;;;;;;39.63;17.50;;;;;;;10.61;66.78;102806.53;5057904;28;20040;-50
2023/01/29 03:11:12;;;;;;;45.10;18.13;;;;;;;10.27;68.93;102799.00;5055494;28;20032;-49
2023/01/29 03:14:03;;;;;;;36.55;17.13;;;;;;;9.95;70.44;102795.69;5065458;28;20068;-49
2023/01/29 03:16:38;;;;;;;45.83;19.85;;;;;;;9.55;73.16;102796.69;5062040;28;20025;-51
2023/01/29 03:19:09;;;;;;;39.78;17.77;;;;;;;9.79;72.60;102790.94;5063603;28;20029;-48
2023/01/29 03:21:50;;;;;;;39.65;17.58;;;;;;;9.66;73.18;102790.38;5062568;28;20033;-48
2023/01/29 03:32:52;;;;;;;34.90;16.38;;;;;;;9.95;72.11;102778.81;5057645;28;20029;-51
2023/01/29 03:35:34;;;;;;;40.58;19.10;;;;;;;10.50;69.91;102774.59;5052626;28;20076;-50
2023/01/29 03:38:01;;;;;;;38.00;17.73;;;;;;;10.10;71.24;102765.84;5057015;28;20048;-51
2023/01/29 03:40:35;;;;;;;41.95;18.67;;;;;;;10.36;70.96;102760.69;5059824;28;20037;-49
2023/01/29 03:43:18;;;;;;;38.55;17.38;;;;;;;11.53;66.30;102757.47;5055172;28;20029;-51
2023/01/29 03:46:10;;;;;;;49.05;19.73;;;;;;;10.86;67.43;102761.34;5055026;28;20057;-51
2023/01/29 03:48:52;;;;;;;44.20;18.25;;;;;;;10.13;70.04;102745.00;5059567;28;20069;-52
2023/01/29 03:51:31;;;;;;;41.78;18.40;;;;;;;10.88;68.22;102741.44;5054510;28;20052;-49
2023/01/29 03:54:03;;;;;;;38.80;18.45;;;;;;;11.98;64.47;102748.41;5060060;28;20036;-50
2023/01/29 03:56:42;;;;;;;40.08;15.30;;;;;;;10.24;69.92;102751.16;5053365;28;20030;-49
2023/01/29 03:59:17;;;;;;;34.45;16.17;;;;;;;10.11;70.61;102741.63;5055913;28;20068;-48
2023/01/29 04:02:26;;;;;;;40.30;17.25;;;;;;;10.37;70.39;102740.97;5055111;28;20068;-52
2023/01/29 04:05:03;;;;;;;41.63;17.35;;;;;;;10.65;68.88;102746.38;5054447;28;20092;-54
2023/01/29 04:07:33;;;;;;;37.17;16.73;;;;;;;10.72;68.86;102744.78;5057393;28;20055;-52
2023/01/29 04:10:10;;;;;;;36.63;18.15;;;;;;;10.62;68.63;102749.34;5056540;28;20040;-49
2023/01/29 04:12:44;;;;;;;38.03;17.65;;;;;;;10.71;68.20;102753.81;5055458;28;20036;-53
2023/01/29 04:15:14;;;;;;;35.95;17.20;;;;;;;11.32;66.50;102767.50;5052152;28;20026;-51
2023/01/29 04:17:44;;;;;;;33.38;16.67;;;;;;;10.95;67.12;102760.44;5055434;28;20102;-49
2023/01/29 04:20:26;;;;;;;33.83;15.80;;;;;;;10.97;67.15;102752.25;5068385;28;20029;-50
2023/01/29 04:22:52;;;;;;;34.72;15.80;;;;;;;10.68;68.53;102732.69;5057509;28;20048;-51
2023/01/29 04:25:25;;;;;;;38.05;17.10;;;;;;;11.05;67.68;102729.06;5057920;28;20041;-50
2023/01/29 04:28:09;;;;;;;37.38;18.30;;;;;;;10.37;69.33;102727.59;5056970;28;20041;-50
2023/01/29 04:30:50;;;;;;;36.08;16.30;;;;;;;10.67;70.46;102714.09;5058121;28;20049;-48
2023/01/29 04:33:27;;;;;;;35.53;16.25;;;;;;;10.07;69.68;102723.38;5055401;28;20120;-47
2023/01/29 04:36:00;;;;;;;32.45;15.30;;;;;;;9.96;72.18;102713.69;5071880;28;20049;-52
2023/01/29 04:39:00;;;;;;;38.92;17.60;;;;;;;10.33;69.96;102708.34;5052208;28;20041;-51
2023/01/29 04:41:52;;;;;;;37.97;16.88;;;;;;;11.65;66.08;102710.66;5056923;28;20083;-49
2023/01/29 04:44:20;;;;;;;36.55;16.13;;;;;;;10.84;66.06;102707.09;5057331;28;20076;-47
2023/01/29 04:47:18;;;;;;;36.20;16.52;;;;;;;11.13;66.93;102722.94;5054303;28;20026;-48
2023/01/29 04:49:46;;;;;;;38.58;17.70;;;;;;;10.33;68.79;102704.81;5053350;28;20029;-51
2023/01/29 04:52:26;;;;;;;36.70;17.10;;;;;;;10.67;68.01;102698.91;5055224;28;20037;-50
2023/01/29 04:55:04;;;;;;;38.35;18.42;;;;;;;10.72;67.75;102696.63;5051133;28;20093;-51
2023/01/29 04:57:35;;;;;;;38.38;18.15;;;;;;;10.43;69.43;102702.97;5059643;28;20048;-48
2023/01/29 05:00:31;;;;;;;39.47;18.15;;;;;;;10.83;68.03;102705.41;5055502;28;20072;-49
2023/01/29 05:02:59;;;;;;;37.95;18.08;;;;;;;12.06;64.22;102699.38;5045455;28;20041;-50
2023/01/29 05:05:25;;;;;;;37.95;18.33;;;;;;;12.54;62.53;102698.91;5050968;28;20032;-52
2023/01/29 05:07:51;;;;;;;40.38;17.65;;;;;;;11.52;65.12;102696.81;5058518;28;20055;-48
2023/01/29 05:10:19;;;;;;;41.78;19.08;;;;;;;11.12;63.97;102707.06;5053087;28;20038;-47
2023/01/29 05:12:50;;;;;;;44.03;20.55;;;;;;;11.31;65.66;102696.19;5055692;28;20029;-47
2023/01/29 05:15:24;;;;;;;40.17;19.60;;;;;;;10.62;66.98;102695.84;5056093;28;20032;-49
2023/01/29 05:17:52;;;;;;;50.58;21.40;;;;;;;11.01;66.17;102690.22;5056060;28;20050;-50
2023/01/29 05:20:19;;;;;;;45.30;20.48;;;;;;;10.91;65.68;102689.44;5054871;28;20029;-47
2023/01/29 05:22:46;;;;;;;43.08;19.92;;;;;;;10.78;66.39;102686.28;5056159;28;20029;-52
2023/01/29 05:25:32;;;;;;;48.72;19.77;;;;;;;11.32;65.20;102675.56;5055752;28;20044;-48
2023/01/29 05:28:10;;;;;;;46.70;22.13;;;;;;;11.38;65.14;102674.94;5054229;28;20030;-50
2023/01/29 05:30:37;;;;;;;43.40;20.27;;;;;;;11.49;64.68;102679.22;5058487;28;20025;-51
2023/01/29 05:33:10;;;;;;;47.40;20.20;;;;;;;11.11;65.32;102682.09;5059645;28;20052;-50
2023/01/29 05:35:35;;;;;;;43.13;20.48;;;;;;;10.81;66.42;102688.66;5054403;28;20049;-48
2023/01/29 05:38:01;;;;;;;41.20;19.30;;;;;;;11.62;64.20;102692.19;5058822;28;20022;-52
2023/01/29 05:40:26;;;;;;;40.47;19.47;;;;;;;11.17;64.54;102702.91;5056053;28;20033;-50
2023/01/29 05:42:52;;;;;;;44.20;20.42;;;;;;;11.14;66.41;102697.84;5054143;28;20191;-51
2023/01/29 05:45:18;;;;;;;38.63;19.67;;;;;;;10.31;67.76;102699.63;5056078;28;20087;-53
2023/01/29 05:47:44;;;;;;;42.55;18.95;;;;;;;11.25;66.18;102696.78;5055851;28;20105;-52
2023/01/29 05:50:10;;;;;;;40.65;20.17;;;;;;;11.27;64.62;102694.78;5057172;28;20037;-48
2023/01/29 05:52:36;;;;;;;39.03;18.97;;;;;;;11.59;63.23;102693.38;5059075;28;20117;-50
2023/01/29 05:55:02;;;;;;;40.00;19.00;;;;;;;11.11;64.95;102705.38;5058064;28;20274;-53
2023/01/29 05:57:28;;;;;;;46.00;20.67;;;;;;;11.19;65.22;102702.75;5060948;28;20025;-51
2023/01/29 05:59:53;;;;;;;38.60;18.90;;;;;;;12.06;63.07;102702.06;5059917;28;20038;-51
2023/01/29 06:02:20;;;;;;;43.77;20.30;;;;;;;11.72;62.36;102702.81;5065198;28;20028;-57
2023/01/29 06:04:45;;;;;;;44.45;19.85;;;;;;;11.42;65.30;102705.81;5056869;28;20041;-50
2023/01/29 06:07:10;;;;;;;37.87;18.80;;;;;;;10.96;65.93;102708.56;5056328;28;20052;-54
2023/01/29 06:09:36;;;;;;;45.20;19.80;;;;;;;11.25;65.07;102710.16;5066878;28;20037;-49
2023/01/29 06:12:02;;;;;;;43.40;20.10;;;;;;;11.55;64.81;102702.72;5058763;28;20032;-52
2023/01/29 06:14:27;;;;;;;43.67;20.33;;;;;;;11.67;63.42;102679.19;5055810;28;20278;-52
2023/01/29 06:16:53;;;;;;;43.07;19.60;;;;;;;10.78;66.65;102672.91;5060772;28;20045;-52
2023/01/29 06:19:19;;;;;;;36.57;16.87;;;;;;;10.50;68.07;102667.59;5056935;28;20030;-52
2023/01/29 06:21:44;;;;;;;45.67;20.00;;;;;;;11.32;65.95;102673.75;5053710;28;20040;-52
2023/01/29 06:24:10;;;;;;;46.50;21.00;;;;;;;10.57;67.95;102666.84;5064151;28;20270;-53
2023/01/29 06:26:36;;;;;;;46.50;19.67;;;;;;;10.81;66.97;102667.25;5055775;28;20032;-52
2023/01/29 06:29:01;;;;;;;42.27;20.20;;;;;;;10.11;69.38;102661.41;5058843;28;20033;-49
2023/01/29 06:31:27;;;;;;;44.70;20.57;;;;;;;11.28;66.57;102661.66;5058024;28;20088;-52
2023/01/29 06:33:52;;;;;;;41.87;19.50;;;;;;;10.91;67.74;102665.34;5059852;28;20040;-53
2023/01/29 06:36:18;;;;;;;39.50;18.17;;;;;;;11.69;64.88;102665.63;5060294;28;20084;-52
2023/01/29 06:38:44;;;;;;;42.15;19.17;;;;;;;11.48;65.63;102651.59;5061480;28;20029;-51
2023/01/29 06:41:11;;;;;;;31.93;13.73;;;;;;;10.48;66.80;102659.72;5057662;28;20049;-52
2023/01/29 06:43:38;;;;;;;45.05;19.80;;;;;;;10.43;68.90;102659.31;5055194;28;20281;-48
2023/01/29 06:46:05;;;;;;;;;;;;;;;10.04;70.49;102652.31;5057000;28;20045;-53
2023/01/29 06:48:31;;;;;;;43.45;19.42;;;;;;;11.14;67.19;102659.53;5060022;28;19944;-49
2023/01/29 06:51:04;;;;;;;47.60;20.57;;;;;;;10.74;67.75;102659.84;5059434;28;20041;-48
2023/01/29 06:53:31;;;;;;;48.28;19.65;;;;;;;11.04;66.36;102652.41;5058299;28;20037;-50
2023/01/29 06:55:57;;;;;;;43.20;19.50;;;;;;;11.12;66.15;102658.84;5056806;28;20064;-47
2023/01/29 06:58:23;;;;;;;44.43;18.63;;;;;;;11.16;65.05;102653.00;5056688;28;20033;-50
2023/01/29 07:00:48;;;;;;;38.35;17.92;;;;;;;11.69;64.20;102665.63;5058892;28;20038;-52
2023/01/29 07:03:14;;;;;;;37.37;18.13;;;;;;;11.23;64.19;102666.63;5061835;28;20033;-50
2023/01/29 07:05:39;;;;;;;38.80;17.17;;;;;;;11.76;63.70;102674.69;5055076;28;20032;-52
2023/01/29 07:08:05;;;;;;;46.30;19.70;;;;;;;11.03;64.74;102671.31;5057969;28;20025;-49
2023/01/29 07:10:30;;;;;;;44.73;19.77;;;;;;;11.18;65.30;102674.28;5056697;28;20033;-50
2023/01/29 07:12:58;;;;;;;40.43;18.53;;;;;;;11.39;63.84;102673.13;5061282;28;20283;-48
2023/01/29 07:15:23;;;;;;;39.40;17.95;;;;;;;11.20;64.50;102666.94;5055012;28;20071;-48
2023/01/29 07:18:00;;;;;;;41.35;18.27;;;;;;;10.36;66.88;102663.56;5058704;28;20046;-51
2023/01/29 07:20:27;;;;;;;34.53;17.33;;;;;;;10.75;67.33;102668.72;5059771;28;20056;-48
2023/01/29 07:22:56;;;;;;;42.13;19.33;;;;;;;10.67;66.83;102672.16;5056458;28;20132;-48
2023/01/29 07:25:21;;;;;;;41.10;18.48;;;;;;;10.13;69.13;102658.63;5052117;28;20033;-54
2023/01/29 07:27:48;;;;;;;41.63;19.25;;;;;;;10.13;70.15;102653.25;5058334;28;20033;-52
2023/01/29 07:30:15;;;;;;;42.22;18.48;;;;;;;10.07;70.24;102653.88;5056133;28;20057;-50
2023/01/29 07:32:41;;;;;;;41.90;19.33;;;;;;;9.90;70.44;102657.13;5061244;28;20040;-48
2023/01/29 07:35:06;;;;;;;38.07;18.90;;;;;;;9.90;70.58;102654.47;5060641;28;20109;-47
2023/01/29 07:37:32;;;;;;;36.55;17.95;;;;;;;10.16;69.34;102659.16;5056639;28;20033;-47
2023/01/29 07:39:58;;;;;;;41.57;18.73;;;;;;;10.33;69.66;102656.66;5053947;28;20424;-52
2023/01/29 07:42:24;;;;;;;41.25;18.10;;;;;;;10.18;70.27;102649.16;5059014;28;20040;-49
2023/01/29 07:44:50;;;;;;;38.00;16.97;;;;;;;10.89;66.75;102646.75;5058171;28;20100;-49
2023/01/29 07:47:15;;;;;;;38.47;16.90;;;;;;;10.94;66.63;102638.28;5056820;28;20025;-51
2023/01/29 07:49:41;;;;;;;32.70;15.57;;;;;;;10.49;68.15;102645.34;5057018;28;20033;-50
2023/01/29 07:52:06;;;;;;;33.97;16.03;;;;;;;11.01;66.32;102652.72;5057124;28;20293;-53
2023/01/29 07:54:31;;;;;;;38.37;16.50;;;;;;;11.30;65.13;102657.00;5056869;28;20127;-52
2023/01/29 07:56:57;;;;;;;35.30;16.83;;;;;;;11.22;65.15;102651.56;5054294;28;20034;-52
2023/01/29 07:59:22;;;;;;;34.57;15.77;;;;;;;11.09;65.88;102651.13;5055190;28;20037;-49
2023/01/29 08:01:47;;;;;;;31.20;15.60;;;;;;;10.63;66.58;102644.00;5053734;28;20033;-50
2023/01/29 08:04:13;;;;;;;37.67;16.63;;;;;;;11.16;66.14;102638.81;5055391;28;20201;-52
2023/01/29 08:06:39;;;;;;;38.53;15.65;;;;;;;10.62;66.79;102642.34;5055105;28;20025;-50
2023/01/29 08:09:04;;;;;;;35.67;14.77;;;;;;;10.32;68.18;102625.56;5056050;28;20045;-50
2023/01/29 08:11:30;;;;;;;39.08;16.52;;;;;;;10.09;68.06;102631.31;5055238;28;20037;-53
2023/01/29 08:13:56;;;;;;;39.50;16.67;;;;;;;10.54;67.85;102619.00;5056498;28;20033;-49
2023/01/29 08:16:22;;;;;;;33.20;16.55;;;;;;;10.57;68.23;102604.47;5060360;28;20044;-52
2023/01/29 08:18:47;;;;;;;35.60;17.87;;;;;;;10.65;67.40;102607.25;5061185;28;20036;-52
2023/01/29 08:21:14;;;;;;;30.33;15.37;;;;;;;10.45;68.12;102623.44;5060927;28;20064;-52
2023/01/29 08:23:39;;;;;;;33.55;15.27;;;;;;;11.21;66.24;102606.22;5058353;28;20036;-52
2023/01/29 08:26:05;;;;;;;33.90;15.67;;;;;;;10.37;68.23;102609.09;5056505;28;20093;-51
2023/01/29 08:28:30;;;;;;;31.17;14.90;;;;;;;11.24;65.86;102603.22;5056436;28;20039;-54
2023/01/29 08:30:56;;;;;;;31.53;14.40;;;;;;;11.57;64.24;102612.31;5054207;28;20114;-50
2023/01/29 08:33:22;;;;;;;29.73;14.60;;;;;;;10.61;66.44;102619.25;5053553;28;20281;-49
2023/01/29 08:35:50;;;;;;;35.20;14.53;;;;;;;11.22;65.04;102618.59;5056703;28;20109;-52
2023/01/29 08:38:16;;;;;;;33.47;16.23;;;;;;;11.29;64.65;102611.63;5058720;28;20033;-52
2023/01/29 08:40:42;;;;;;;35.55;15.10;;;;;;;11.37;64.64;102616.19;5062689;28;20040;-52
2023/01/29 08:43:10;;;;;;;29.20;15.52;;;;;;;11.07;64.35;102618.28;5062685;28;20041;-51
2023/01/29 08:45:39;;;;;;;36.67;16.50;;;;;;;11.07;65.12;102618.28;5064986;28;20092;-51
2023/01/29 08:48:05;;;;;;;32.10;14.75;;;;;;;11.21;64.74;102614.25;5057571;28;20044;-50
2023/01/29 08:50:33;;;;;;;31.67;15.48;;;;;;;11.44;64.30;102609.19;5057090;28;20041;-50
2023/01/29 08:53:00;;;;;;;29.00;12.80;;;;;;;11.48;63.60;102599.84;5061540;28;20098;-51
2023/01/29 08:55:27;;;;;;;30.58;14.75;;;;;;;11.28;64.45;102596.53;5054710;28;20044;-48
2023/01/29 08:57:53;;;;;;;32.20;15.95;;;;;;;11.12;64.94;102581.19;5059120;28;20066;-49
2023/01/29 09:00:19;;;;;;;32.63;15.40;;;;;;;10.74;65.45;102592.09;5056924;28;20033;-50
2023/01/29 09:02:45;;;;;;;30.35;15.55;;;;;;;11.08;65.45;102579.84;5059593;28;20101;-50
2023/01/29 09:05:11;;;;;;;29.88;14.18;;;;;;;10.67;66.61;102575.81;5062532;28;20041;-50
2023/01/29 09:07:37;;;;;;;30.80;15.32;;;;;;;10.53;67.77;102574.53;5059215;28;20032;-53
2023/01/29 09:10:03;;;;;;;33.40;14.97;;;;;;;10.24;68.15;102580.84;5062848;28;20040;-51
2023/01/29 09:12:28;;;;;;;34.60;13.77;;;;;;;10.23;68.95;102583.69;5060317;28;20044;-49
2023/01/29 09:14:54;;;;;;;33.03;15.50;;;;;;;10.55;68.59;102571.69;5062269;28;20044;-52
2023/01/29 09:17:19;;;;;;;26.73;12.93;;;;;;;10.68;67.93;102579.31;5057383;28;20034;-50
2023/01/29 09:19:45;;;;;;;26.77;13.20;;;;;;;10.67;66.65;102575.81;5060424;28;20056;-54
2023/01/29 09:22:10;;;;;;;36.67;15.33;;;;;;;10.58;68.17;102582.06;5057337;28;20038;-50
2023/01/29 09:24:36;;;;;;;35.35;14.15;;;;;;;11.08;66.79;102587.88;5054785;28;20029;-52
2023/01/29 09:27:01;;;;;;;31.77;13.93;;;;;;;10.67;67.18;102583.00;5054748;28;20089;-51
2023/01/29 09:29:27;;;;;;;30.53;14.63;;;;;;;11.03;66.02;102588.31;5059754;28;20032;-53
2023/01/29 09:31:52;;;;;;;28.57;13.73;;;;;;;10.89;66.00;102605.78;5061608;28;20045;-50
2023/01/29 09:34:18;;;;;;;22.53;12.13;;;;;;;10.70;65.37;102583.53;5064069;28;20044;-51
2023/01/29 09:36:44;;;;;;;27.67;13.13;;;;;;;11.42;64.46;102598.66;5064206;28;20287;-47
2023/01/29 09:39:09;;;;;;;28.48;14.80;;;;;;;11.46;64.07;102596.47;5056014;28;20132;-49
2023/01/29 09:42:48;;;;;;;24.33;11.67;;;;;;;11.35;64.07;102594.06;5060041;28;20061;-48
2023/01/29 09:45:23;;;;;;;29.63;13.38;;;;;;;11.02;64.72;102592.81;4966420;29;20058;-48
2023/01/29 09:47:49;;;;;;;27.52;12.55;;;;;;;11.27;64.92;102584.16;5026922;28;20042;-48
2023/01/29 09:50:27;;;;;;;24.88;12.82;;;;;;;10.71;65.95;102579.00;5056295;28;20043;-53
2023/01/29 09:52:59;;;;;;;26.88;12.98;;;;;;;11.13;65.21;102585.56;5064854;28;20037;-52
2023/01/29 09:55:26;;;;;;;26.63;13.10;;;;;;;11.33;64.26;102580.84;5064043;28;20041;-50
2023/01/29 09:57:56;;;;;;;28.77;13.65;;;;;;;11.76;63.29;102587.09;5059512;28;21132;-49
2023/01/29 10:00:28;;;;;;;27.27;12.98;;;;;;;12.34;61.99;102583.81;5061773;28;20049;-50
2023/01/29 10:03:14;;;;;;;21.55;11.05;;;;;;;11.01;64.17;102576.94;5059446;28;20071;-50
2023/01/29 10:05:54;;;;;;;28.30;12.05;;;;;;;11.16;64.58;102563.81;5057585;28;20048;-52
2023/01/29 10:08:53;;;;;;;21.40;11.80;;;;;;;11.54;63.80;102560.84;5064640;28;20093;-51
2023/01/29 10:11:52;;;;;;;21.48;12.02;;;;;;;10.94;65.43;102557.13;5057500;28;20101;-52
2023/01/29 10:14:37;;;;;;;25.92;11.63;;;;;;;10.95;65.13;102558.78;5055305;28;20093;-47
2023/01/29 10:17:21;;;;;;;25.23;12.02;;;;;;;11.14;64.58;102563.13;5053756;28;20037;-49
2023/01/29 10:20:10;;;;;;;27.83;11.57;;;;;;;11.59;63.94;102559.38;5055930;28;20036;-51
2023/01/29 10:23:02;;;;;;;25.73;12.23;;;;;;;11.27;65.15;102560.88;5059111;28;20056;-48
2023/01/29 10:25:28;;;;;;;32.45;12.88;;;;;;;11.24;64.35;102566.53;5056374;28;20033;-51
2023/01/29 10:27:58;;;;;;;26.20;11.25;;;;;;;11.32;63.67;102579.16;5056852;28;20116;-49
2023/01/29 10:30:44;;;;;;;27.42;12.27;;;;;;;11.68;63.66;102571.00;5055245;28;20057;-51
2023/01/29 10:33:17;;;;;;;26.20;12.25;;;;;;;11.75;62.61;102573.84;5065132;28;20053;-51
2023/01/29 10:35:48;;;;;;;25.10;12.50;;;;;;;11.62;63.63;102575.16;5058591;28;20037;-53
2023/01/29 10:38:23;;;;;;;22.58;12.30;;;;;;;11.32;62.75;102574.66;5053417;28;20043;-51
2023/01/29 10:40:58;;;;;;;25.48;12.02;;;;;;;11.95;62.75;102576.28;5055684;28;20097;-52
2023/01/29 10:43:43;;;;;;;32.88;14.40;;;;;;;12.15;62.26;102563.50;5054846;28;20117;-54
2023/01/29 10:46:40;;;;;;;25.83;13.15;;;;;;;12.17;62.64;102561.47;5059943;28;20017;-55
2023/01/29 10:49:20;;;;;;;25.02;12.60;;;;;;;11.82;62.95;102556.13;5055167;28;20037;-53
2023/01/29 10:51:55;;;;;;;28.55;13.27;;;;;;;11.37;63.78;102554.56;5060995;28;20060;-56
2023/01/29 10:54:40;;;;;;;31.70;14.50;;;;;;;11.40;64.19;102547.03;5056755;28;20048;-52
2023/01/29 10:57:13;;;;;;;29.05;13.90;;;;;;;11.40;64.06;102544.38;5056364;28;20037;-49
2023/01/29 10:59:50;;;;;;;27.52;13.43;;;;;;;12.06;62.91;102535.81;5054701;28;20037;-53
2023/01/29 11:02:20;;;;;;;32.30;14.38;;;;;;;11.56;64.10;102516.84;5053736;28;20030;-51
2023/01/29 11:04:46;;;;;;;26.58;13.75;;;;;;;11.71;63.46;102521.56;5059198;28;20040;-49
2023/01/29 11:07:14;;;;;;;26.90;14.07;;;;;;;11.52;64.45;102515.47;5057498;28;20049;-48
2023/01/29 11:10:06;;;;;;;29.88;15.55;;;;;;;11.40;64.85;102511.41;5054402;28;20030;-50
2023/01/29 11:12:33;;;;;;;32.50;15.25;;;;;;;11.57;64.75;102499.75;5052658;28;20097;-52
2023/01/29 11:15:06;;;;;;;35.72;16.35;;;;;;;11.42;65.25;102506.72;5059898;28;20057;-52
2023/01/29 11:17:32;;;;;;;30.05;14.45;;;;;;;11.70;64.22;102493.94;5060062;28;20029;-52
2023/01/29 11:19:57;;;;;;;30.43;15.57;;;;;;;12.04;63.49;102481.50;5056657;28;20076;-51
2023/01/29 11:22:28;;;;;;;38.10;16.23;;;;;;;12.07;63.53;102469.59;5054925;28;20033;-50
2023/01/29 11:25:17;;;;;;;35.38;15.80;;;;;;;12.27;62.44;102484.38;5060365;28;20294;-50
2023/01/29 11:27:46;;;;;;;32.22;16.23;;;;;;;11.84;63.58;102476.41;5056791;28;20045;-49
2023/01/29 11:30:28;;;;;;;31.90;16.00;;;;;;;11.36;64.74;102475.22;5060093;28;20029;-51
2023/01/29 11:33:17;;;;;;;30.70;14.75;;;;;;;11.49;63.61;102478.28;5059051;28;20079;-52
2023/01/29 11:35:44;;;;;;;27.92;15.00;;;;;;;11.09;65.59;102471.75;5057388;28;20045;-51
2023/01/29 11:38:17;;;;;;;29.48;15.65;;;;;;;11.28;64.80;102474.16;5056851;28;20049;-50
2023/01/29 11:40:43;;;;;;;32.75;15.13;;;;;;;11.77;64.22;102478.06;5057901;28;20033;-52
2023/01/29 11:43:19;;;;;;;32.30;16.83;;;;;;;11.54;64.58;102475.97;5054137;28;20034;-48
2023/01/29 11:45:46;;;;;;;32.88;16.13;;;;;;;11.30;65.01;102476.69;5055467;28;20026;-54
2023/01/29 11:48:16;;;;;;;31.75;16.38;;;;;;;11.84;64.01;102468.34;5056989;28;20045;-49
2023/01/29 11:50:49;;;;;;;33.42;16.65;;;;;;;11.67;64.48;102463.94;5058546;28;20029;-48
2023/01/29 11:53:31;;;;;;;34.70;16.15;;;;;;;11.22;65.95;102458.75;5058483;28;20072;-50
2023/01/29 11:55:56;;;;;;;37.85;16.73;;;;;;;11.24;65.71;102447.88;5060099;28;20033;-48